sensor_id;sensor_type;location;lat;lon;timestamp;pressure;altitude;pressure_sealevel;temperature;humidity
15314;BME280;7757;52.626;4.746;2023-04-01T00:01:30;98840.03;;;16.68;65.04
15314;BME280;7757;52.626;4.746;2023-04-01T00:04:16;98836.25;;;16.64;65.50
15314;BME280;7757;52.626;4.746;2023-04-01T00:07:01;98838.13;;;16.68;65.54
15314;BME280;7757;52.626;4.746;2023-04-01T00:09:47;98846.00;;;16.65;65.16
15314;BME280;7757;52.626;4.746;2023-04-01T00:12:33;98849.75;;;16.69;65.10
15314;BME280;7757;52.626;4.746;2023-04-01T00:15:20;98851.09;;;16.66;65.13
15314;BME280;7757;52.626;4.746;2023-04-01T00:18:05;98857.31;;;16.67;65.51
15314;BME280;7757;52.626;4.746;2023-04-01T00:20:51;98847.59;;;16.66;65.69
15314;BME280;7757;52.626;4.746;2023-04-01T00:23:37;98858.94;;;16.68;65.89
15314;BME280;7757;52.626;4.746;2023-04-01T00:26:22;98864.59;;;16.66;65.34
15314;BME280;7757;52.626;4.746;2023-04-01T00:29:09;98854.34;;;16.63;65.90
15314;BME280;7757;52.626;4.746;2023-04-01T00:31:56;98865.41;;;16.67;65.64
15314;BME280;7757;52.626;4.746;2023-04-01T00:34:42;98856.78;;;16.65;65.40
15314;BME280;7757;52.626;4.746;2023-04-01T00:37:28;98871.06;;;16.65;65.60
15314;BME280;7757;52.626;4.746;2023-04-01T00:40:24;98865.94;;;16.69;65.82
15314;BME280;7757;52.626;4.746;2023-04-01T00:43:13;98869.19;;;16.66;65.45
15314;BME280;7757;52.626;4.746;2023-04-01T00:45:58;98875.13;;;16.68;66.02
15314;BME280;7757;52.626;4.746;2023-04-01T00:48:47;98878.09;;;16.66;65.63
15314;BME280;7757;52.626;4.746;2023-04-01T00:51:33;98874.06;;;16.64;66.04
15314;BME280;7757;52.626;4.746;2023-04-01T00:54:24;98881.88;;;16.65;66.00
15314;BME280;7757;52.626;4.746;2023-04-01T00:57:15;98878.94;;;16.62;65.65
15314;BME280;7757;52.626;4.746;2023-04-01T01:00:04;98880.25;;;16.64;65.44
15314;BME280;7757;52.626;4.746;2023-04-01T01:02:51;98896.47;;;16.64;65.91
15314;BME280;7757;52.626;4.746;2023-04-01T01:05:57;98889.97;;;16.65;65.92
15314;BME280;7757;52.626;4.746;2023-04-01T01:09:05;98892.66;;;16.65;65.35
15314;BME280;7757;52.626;4.746;2023-04-01T01:11:55;98883.75;;;16.60;65.49
15314;BME280;7757;52.626;4.746;2023-04-01T01:14:52;98891.88;;;16.65;65.31
15314;BME280;7757;52.626;4.746;2023-04-01T01:17:45;98898.88;;;16.66;65.21
15314;BME280;7757;52.626;4.746;2023-04-01T01:20:56;98905.38;;;16.65;66.02
15314;BME280;7757;52.626;4.746;2023-04-01T01:27:07;98914.25;;;16.65;65.47
15314;BME280;7757;52.626;4.746;2023-04-01T01:30:31;98918.06;;;16.64;66.02
15314;BME280;7757;52.626;4.746;2023-04-01T01:33:42;98914.00;;;16.57;66.02
15314;BME280;7757;52.626;4.746;2023-04-01T01:36:32;98929.09;;;16.63;65.64
15314;BME280;7757;52.626;4.746;2023-04-01T01:39:20;98924.53;;;16.63;65.32
15314;BME280;7757;52.626;4.746;2023-04-01T01:42:13;98929.91;;;16.63;65.50
15314;BME280;7757;52.626;4.746;2023-04-01T01:45:03;98941.00;;;16.62;65.90
15314;BME280;7757;52.626;4.746;2023-04-01T01:47:49;98941.78;;;16.62;65.81
15314;BME280;7757;52.626;4.746;2023-04-01T01:50:36;98949.09;;;16.62;65.53
15314;BME280;7757;52.626;4.746;2023-04-01T01:53:24;98940.16;;;16.56;65.32
15314;BME280;7757;52.626;4.746;2023-04-01T01:56:10;98958.25;;;16.61;65.67
15314;BME280;7757;52.626;4.746;2023-04-01T01:58:59;98956.38;;;16.61;65.82
15314;BME280;7757;52.626;4.746;2023-04-01T02:01:50;98965.28;;;16.62;65.45
15314;BME280;7757;52.626;4.746;2023-04-01T02:04:39;98970.69;;;16.62;65.56
15314;BME280;7757;52.626;4.746;2023-04-01T02:07:27;98976.34;;;16.60;65.44
15314;BME280;7757;52.626;4.746;2023-04-01T02:10:15;98984.44;;;16.60;65.84
15314;BME280;7757;52.626;4.746;2023-04-01T02:13:07;98992.53;;;16.60;66.21
15314;BME280;7757;52.626;4.746;2023-04-01T02:15:53;98990.38;;;16.57;65.82
15314;BME280;7757;52.626;4.746;2023-04-01T02:18:43;98997.13;;;16.60;65.57
15314;BME280;7757;52.626;4.746;2023-04-01T02:21:31;99007.91;;;16.60;65.56
15314;BME280;7757;52.626;4.746;2023-04-01T02:24:18;99009.00;;;16.59;65.83
15314;BME280;7757;52.626;4.746;2023-04-01T02:27:08;99009.00;;;16.59;65.92
15314;BME280;7757;52.626;4.746;2023-04-01T02:29:55;99007.38;;;16.58;65.63
15314;BME280;7757;52.626;4.746;2023-04-01T02:32:40;99009.56;;;16.56;65.78
15314;BME280;7757;52.626;4.746;2023-04-01T02:35:26;99011.13;;;16.52;65.83
15314;BME280;7757;52.626;4.746;2023-04-01T02:38:12;99019.25;;;16.57;65.81
15314;BME280;7757;52.626;4.746;2023-04-01T02:41:00;99026.28;;;16.58;65.98
15314;BME280;7757;52.626;4.746;2023-04-01T02:43:50;99027.34;;;16.57;65.51
15314;BME280;7757;52.626;4.746;2023-04-01T02:46:36;99033.56;;;16.57;65.98
15314;BME280;7757;52.626;4.746;2023-04-01T02:49:21;99037.06;;;16.58;65.68
15314;BME280;7757;52.626;4.746;2023-04-01T02:52:06;99035.13;;;16.53;65.80
15314;BME280;7757;52.626;4.746;2023-04-01T02:54:52;99039.25;;;16.56;66.03
15314;BME280;7757;52.626;4.746;2023-04-01T02:57:37;99047.59;;;16.54;65.68
15314;BME280;7757;52.626;4.746;2023-04-01T03:00:25;99046.47;;;16.50;65.93
15314;BME280;7757;52.626;4.746;2023-04-01T03:03:10;99053.25;;;16.53;65.46
15314;BME280;7757;52.626;4.746;2023-04-01T03:05:57;99056.47;;;16.50;66.24
15314;BME280;7757;52.626;4.746;2023-04-01T03:08:44;99071.06;;;16.54;65.60
15314;BME280;7757;52.626;4.746;2023-04-01T03:11:29;99071.31;;;16.52;65.58
15314;BME280;7757;52.626;4.746;2023-04-01T03:14:14;99067.25;;;16.45;66.21
15314;BME280;7757;52.626;4.746;2023-04-01T03:17:01;99081.28;;;16.47;66.11
15314;BME280;7757;52.626;4.746;2023-04-01T03:19:46;99088.56;;;16.51;65.64
15314;BME280;7757;52.626;4.746;2023-04-01T03:22:32;99098.56;;;16.51;65.78
15314;BME280;7757;52.626;4.746;2023-04-01T03:25:18;99100.19;;;16.52;65.60
15314;BME280;7757;52.626;4.746;2023-04-01T03:28:03;99096.13;;;16.49;65.92
15314;BME280;7757;52.626;4.746;2023-04-01T03:30:49;99103.13;;;16.50;65.45
15314;BME280;7757;52.626;4.746;2023-04-01T03:33:36;99110.97;;;16.52;65.36
15314;BME280;7757;52.626;4.746;2023-04-01T03:36:22;99121.78;;;16.52;66.10
15314;BME280;7757;52.626;4.746;2023-04-01T03:39:07;99105.84;;;16.45;65.84
15314;BME280;7757;52.626;4.746;2023-04-01T03:41:52;99118.25;;;16.51;65.83
15314;BME280;7757;52.626;4.746;2023-04-01T03:44:38;99110.69;;;16.43;65.50
15314;BME280;7757;52.626;4.746;2023-04-01T03:47:23;99132.03;;;16.50;65.79
15314;BME280;7757;52.626;4.746;2023-04-01T03:50:10;99132.28;;;16.48;66.15
15314;BME280;7757;52.626;4.746;2023-04-01T03:52:56;99132.03;;;16.50;65.81
15314;BME280;7757;52.626;4.746;2023-04-01T03:55:41;99134.97;;;16.48;65.60
15314;BME280;7757;52.626;4.746;2023-04-01T03:58:26;99147.66;;;16.48;65.55
15314;BME280;7757;52.626;4.746;2023-04-01T04:01:18;99148.47;;;16.43;65.76
15314;BME280;7757;52.626;4.746;2023-04-01T04:04:05;99147.13;;;16.41;65.60
15314;BME280;7757;52.626;4.746;2023-04-01T04:06:51;99164.13;;;16.46;65.81
15314;BME280;7757;52.626;4.746;2023-04-01T04:09:37;99150.59;;;16.36;65.30
15314;BME280;7757;52.626;4.746;2023-04-01T04:12:22;99169.53;;;16.46;65.50
15314;BME280;7757;52.626;4.746;2023-04-01T04:15:08;99173.28;;;16.45;65.49
15314;BME280;7757;52.626;4.746;2023-04-01T04:17:53;99174.94;;;16.46;65.87
15314;BME280;7757;52.626;4.746;2023-04-01T04:20:43;99173.56;;;16.44;65.88
15314;BME280;7757;52.626;4.746;2023-04-01T04:23:32;99182.50;;;16.44;65.79
15314;BME280;7757;52.626;4.746;2023-04-01T04:26:18;99179.22;;;16.42;65.21
15314;BME280;7757;52.626;4.746;2023-04-01T04:29:03;99185.44;;;16.43;65.58
15314;BME280;7757;52.626;4.746;2023-04-01T04:31:48;99197.03;;;16.43;66.13
15314;BME280;7757;52.626;4.746;2023-04-01T04:34:34;99190.81;;;16.38;65.56
15314;BME280;7757;52.626;4.746;2023-04-01T04:37:19;99198.38;;;16.41;65.85
15314;BME280;7757;52.626;4.746;2023-04-01T04:40:08;99213.22;;;16.43;65.28
15314;BME280;7757;52.626;4.746;2023-04-01T04:42:53;99214.28;;;16.42;65.96
15314;BME280;7757;52.626;4.746;2023-04-01T04:45:38;99213.75;;;16.40;65.39
15314;BME280;7757;52.626;4.746;2023-04-01T04:48:23;99217.81;;;16.43;65.13
15314;BME280;7757;52.626;4.746;2023-04-01T04:51:13;99223.50;;;16.41;65.18
15314;BME280;7757;52.626;4.746;2023-04-01T04:53:58;99226.19;;;16.41;65.32
15314;BME280;7757;52.626;4.746;2023-04-01T04:56:45;99226.44;;;16.40;65.72
15314;BME280;7757;52.626;4.746;2023-04-01T04:59:31;99229.66;;;16.37;65.37
15314;BME280;7757;52.626;4.746;2023-04-01T05:02:16;99247.19;;;16.39;65.68
15314;BME280;7757;52.626;4.746;2023-04-01T05:05:01;99251.25;;;16.37;65.27
15314;BME280;7757;52.626;4.746;2023-04-01T05:07:48;99254.75;;;16.37;64.83
15314;BME280;7757;52.626;4.746;2023-04-01T05:10:33;99262.56;;;16.39;65.33
15314;BME280;7757;52.626;4.746;2023-04-01T05:13:20;99267.19;;;16.38;65.27
15314;BME280;7757;52.626;4.746;2023-04-01T05:16:08;99263.91;;;16.36;65.23
15314;BME280;7757;52.626;4.746;2023-04-01T05:18:53;99270.41;;;16.35;65.59
15314;BME280;7757;52.626;4.746;2023-04-01T05:21:39;99272.28;;;16.35;64.95
15314;BME280;7757;52.626;4.746;2023-04-01T05:24:24;99285.50;;;16.36;65.41
15314;BME280;7757;52.626;4.746;2023-04-01T05:27:10;99288.72;;;16.33;65.55
15314;BME280;7757;52.626;4.746;2023-04-01T05:29:56;99291.16;;;16.35;64.85
15314;BME280;7757;52.626;4.746;2023-04-01T05:32:42;99293.06;;;16.34;65.30
15314;BME280;7757;52.626;4.746;2023-04-01T05:35:28;99305.47;;;16.35;65.65
15314;BME280;7757;52.626;4.746;2023-04-01T05:38:13;99298.16;;;16.36;65.60
15314;BME280;7757;52.626;4.746;2023-04-01T05:40:59;99300.31;;;16.29;65.35
15314;BME280;7757;52.626;4.746;2023-04-01T05:43:44;99317.34;;;16.34;65.37
15314;BME280;7757;52.626;4.746;2023-04-01T05:46:31;99307.06;;;16.31;64.95
15314;BME280;7757;52.626;4.746;2023-04-01T05:49:17;99318.16;;;16.35;65.07
15314;BME280;7757;52.626;4.746;2023-04-01T05:52:02;99322.72;;;16.34;65.55
15314;BME280;7757;52.626;4.746;2023-04-01T05:54:47;99325.13;;;16.31;65.06
15314;BME280;7757;52.626;4.746;2023-04-01T05:57:33;99330.81;;;16.34;64.87
15314;BME280;7757;52.626;4.746;2023-04-01T06:00:19;99335.41;;;16.34;65.41
15314;BME280;7757;52.626;4.746;2023-04-01T06:03:06;99336.22;;;16.34;65.34
15314;BME280;7757;52.626;4.746;2023-04-01T06:05:51;99342.69;;;16.33;65.31
15314;BME280;7757;52.626;4.746;2023-04-01T06:08:37;99350.53;;;16.35;65.23
15314;BME280;7757;52.626;4.746;2023-04-01T06:11:28;99347.84;;;16.35;64.96
15314;BME280;7757;52.626;4.746;2023-04-01T06:14:27;99354.59;;;16.37;64.75
15314;BME280;7757;52.626;4.746;2023-04-01T06:17:23;99361.06;;;16.36;64.77
15314;BME280;7757;52.626;4.746;2023-04-01T06:20:20;99362.66;;;16.32;65.02
15314;BME280;7757;52.626;4.746;2023-04-01T06:23:21;99372.41;;;16.38;65.01
15314;BME280;7757;52.626;4.746;2023-04-01T06:26:18;99374.81;;;16.35;64.72
15314;BME280;7757;52.626;4.746;2023-04-01T06:29:30;99384.28;;;16.37;64.67
15314;BME280;7757;52.626;4.746;2023-04-01T06:32:40;99380.00;;;16.41;64.49
15314;BME280;7757;52.626;4.746;2023-04-01T06:35:37;99386.19;;;16.42;64.58
15314;BME280;7757;52.626;4.746;2023-04-01T06:38:39;99383.22;;;16.43;64.69
15314;BME280;7757;52.626;4.746;2023-04-01T06:44:52;99406.72;;;16.48;64.17
15314;BME280;7757;52.626;4.746;2023-04-01T06:47:52;99401.09;;;16.49;64.45
15314;BME280;7757;52.626;4.746;2023-04-01T06:50:48;99406.78;;;16.53;64.29
15314;BME280;7757;52.626;4.746;2023-04-01T06:53:44;99407.31;;;16.50;63.74
15314;BME280;7757;52.626;4.746;2023-04-01T06:56:32;99409.72;;;16.51;64.42
15314;BME280;7757;52.626;4.746;2023-04-01T06:59:20;99421.69;;;16.55;64.81
15314;BME280;7757;52.626;4.746;2023-04-01T07:02:16;99418.38;;;16.53;64.12
15314;BME280;7757;52.626;4.746;2023-04-01T07:05:04;99426.25;;;16.55;64.06
15314;BME280;7757;52.626;4.746;2023-04-01T07:07:54;99437.06;;;16.55;64.39
15314;BME280;7757;52.626;4.746;2023-04-01T07:10:46;99439.19;;;16.53;64.10
15314;BME280;7757;52.626;4.746;2023-04-01T07:13:36;99435.63;;;16.47;64.04
15314;BME280;7757;52.626;4.746;2023-04-01T07:16:27;99454.31;;;16.54;64.53
15314;BME280;7757;52.626;4.746;2023-04-01T07:19:18;99464.25;;;16.53;64.28
15314;BME280;7757;52.626;4.746;2023-04-01T07:22:16;99475.06;;;16.53;64.09
15314;BME280;7757;52.626;4.746;2023-04-01T07:25:12;99467.22;;;16.52;64.56
15314;BME280;7757;52.626;4.746;2023-04-01T07:28:01;99472.34;;;16.53;64.22
15314;BME280;7757;52.626;4.746;2023-04-01T07:30:53;99478.34;;;16.55;64.42
15314;BME280;7757;52.626;4.746;2023-04-01T07:33:50;99486.94;;;16.52;63.91
15314;BME280;7757;52.626;4.746;2023-04-01T07:36:42;99477.22;;;16.51;63.78
15314;BME280;7757;52.626;4.746;2023-04-01T07:39:37;99482.88;;;16.50;63.85
15314;BME280;7757;52.626;4.746;2023-04-01T07:42:38;99491.03;;;16.55;64.57
15314;BME280;7757;52.626;4.746;2023-04-01T07:45:30;99492.69;;;16.56;64.26
15314;BME280;7757;52.626;4.746;2023-04-01T07:48:26;99492.69;;;16.56;63.89
15314;BME280;7757;52.626;4.746;2023-04-01T07:51:21;99497.81;;;16.57;63.99
15314;BME280;7757;52.626;4.746;2023-04-01T07:54:13;99500.50;;;16.57;63.50
15314;BME280;7757;52.626;4.746;2023-04-01T07:57:06;99497.50;;;16.54;64.19
15314;BME280;7757;52.626;4.746;2023-04-01T08:00:01;99509.44;;;16.63;63.86
15314;BME280;7757;52.626;4.746;2023-04-01T08:02:58;99516.50;;;16.64;63.96
15314;BME280;7757;52.626;4.746;2023-04-01T08:05:54;99516.72;;;16.62;64.04
15314;BME280;7757;52.626;4.746;2023-04-01T08:08:49;99521.34;;;16.62;63.92
15314;BME280;7757;52.626;4.746;2023-04-01T08:11:44;99526.75;;;16.62;64.20
15314;BME280;7757;52.626;4.746;2023-04-01T08:14:37;99525.34;;;16.59;64.05
15314;BME280;7757;52.626;4.746;2023-04-01T08:17:31;99542.41;;;16.65;63.79
15314;BME280;7757;52.626;4.746;2023-04-01T08:20:28;99547.81;;;16.65;63.48
15314;BME280;7757;52.626;4.746;2023-04-01T08:23:21;99538.06;;;16.59;63.81
15314;BME280;7757;52.626;4.746;2023-04-01T08:26:11;99557.28;;;16.67;63.73
15314;BME280;7757;52.626;4.746;2023-04-01T08:29:02;99560.00;;;16.67;63.37
15314;BME280;7757;52.626;4.746;2023-04-01T08:31:54;99564.03;;;16.65;63.40
15314;BME280;7757;52.626;4.746;2023-04-01T08:34:44;99567.81;;;16.69;63.61
15314;BME280;7757;52.626;4.746;2023-04-01T08:37:36;99562.19;;;16.70;63.80
15314;BME280;7757;52.626;4.746;2023-04-01T08:40:37;99573.75;;;16.71;64.39
15314;BME280;7757;52.626;4.746;2023-04-01T08:43:37;99573.72;;;16.66;64.35
15314;BME280;7757;52.626;4.746;2023-04-01T08:50:01;99587.22;;;16.66;63.94
15314;BME280;7757;52.626;4.746;2023-04-01T08:52:59;99588.31;;;16.65;63.74
15314;BME280;7757;52.626;4.746;2023-04-01T08:55:56;99589.09;;;16.65;63.85
15314;BME280;7757;52.626;4.746;2023-04-01T08:59:07;99594.50;;;16.65;64.36
15314;BME280;7757;52.626;4.746;2023-04-01T09:02:14;99599.66;;;16.67;63.93
15314;BME280;7757;52.626;4.746;2023-04-01T09:05:22;99607.25;;;16.70;64.24
15314;BME280;7757;52.626;4.746;2023-04-01T09:08:22;99603.47;;;16.71;63.84
15314;BME280;7757;52.626;4.746;2023-04-01T09:11:17;99603.47;;;16.71;64.05
15314;BME280;7757;52.626;4.746;2023-04-01T09:14:23;99614.56;;;16.74;63.46
15314;BME280;7757;52.626;4.746;2023-04-01T09:20:36;99617.03;;;16.76;63.34
15314;BME280;7757;52.626;4.746;2023-04-01T09:23:43;99627.91;;;16.86;63.31
15314;BME280;7757;52.626;4.746;2023-04-01T09:26:47;99625.00;;;16.93;63.48
15314;BME280;7757;52.626;4.746;2023-04-01T09:33:08;99633.75;;;17.05;62.95
15314;BME280;7757;52.626;4.746;2023-04-01T09:36:13;99635.47;;;17.16;63.84
15314;BME280;7757;52.626;4.746;2023-04-01T09:39:23;99633.06;;;17.19;62.93
15314;BME280;7757;52.626;4.746;2023-04-01T09:42:27;99626.81;;;17.14;62.96
15314;BME280;7757;52.626;4.746;2023-04-01T09:45:27;99641.97;;;17.15;63.08
15314;BME280;7757;52.626;4.746;2023-04-01T09:48:29;99649.47;;;17.13;63.23
15314;BME280;7757;52.626;4.746;2023-04-01T09:51:31;99648.03;;;17.00;63.15
15314;BME280;7757;52.626;4.746;2023-04-01T09:54:27;99659.63;;;17.01;63.28
15314;BME280;7757;52.626;4.746;2023-04-01T09:57:39;99656.56;;;16.87;63.68
15314;BME280;7757;52.626;4.746;2023-04-01T10:00:59;99671.91;;;16.82;63.87
15314;BME280;7757;52.626;4.746;2023-04-01T10:04:14;99664.53;;;16.77;64.31
15314;BME280;7757;52.626;4.746;2023-04-01T10:10:51;99690.53;;;16.83;63.81
15314;BME280;7757;52.626;4.746;2023-04-01T10:14:07;99697.84;;;16.83;63.83
15314;BME280;7757;52.626;4.746;2023-04-01T10:17:21;99700.81;;;16.86;64.02
15314;BME280;7757;52.626;4.746;2023-04-01T10:20:28;99697.38;;;16.91;63.77
15314;BME280;7757;52.626;4.746;2023-04-01T10:27:07;99705.41;;;17.12;63.25
15314;BME280;7757;52.626;4.746;2023-04-01T10:30:32;99680.81;;;17.09;63.14
15314;BME280;7757;52.626;4.746;2023-04-01T10:36:52;99707.91;;;17.19;62.66
15314;BME280;7757;52.626;4.746;2023-04-01T10:40:03;99706.50;;;17.11;62.97
15314;BME280;7757;52.626;4.746;2023-04-01T10:43:14;99709.28;;;17.21;62.68
15314;BME280;7757;52.626;4.746;2023-04-01T10:46:36;99708.59;;;17.36;62.28
15314;BME280;7757;52.626;4.746;2023-04-01T10:49:55;99714.78;;;17.32;62.20
15314;BME280;7757;52.626;4.746;2023-04-01T10:53:14;99722.41;;;17.40;62.01
15314;BME280;7757;52.626;4.746;2023-04-01T10:56:32;99717.81;;;17.40;62.02
15314;BME280;7757;52.626;4.746;2023-04-01T10:59:51;99732.88;;;17.31;62.45
15314;BME280;7757;52.626;4.746;2023-04-01T11:03:09;99728.69;;;17.18;62.71
15314;BME280;7757;52.626;4.746;2023-04-01T11:13:05;99746.34;;;16.99;63.04
15314;BME280;7757;52.626;4.746;2023-04-01T11:16:27;99754.25;;;17.06;62.90
15314;BME280;7757;52.626;4.746;2023-04-01T11:19:41;99761.63;;;17.15;62.76
15314;BME280;7757;52.626;4.746;2023-04-01T11:22:51;99758.66;;;17.12;62.62
15314;BME280;7757;52.626;4.746;2023-04-01T11:29:08;99766.75;;;17.39;61.91
15314;BME280;7757;52.626;4.746;2023-04-01T11:32:09;99772.53;;;17.52;61.82
15314;BME280;7757;52.626;4.746;2023-04-01T11:35:13;99772.88;;;17.56;61.89
15314;BME280;7757;52.626;4.746;2023-04-01T11:38:14;99787.75;;;17.58;61.46
15314;BME280;7757;52.626;4.746;2023-04-01T11:41:13;99787.69;;;17.53;61.71
15314;BME280;7757;52.626;4.746;2023-04-01T11:44:14;99785.59;;;17.60;61.77
15314;BME280;7757;52.626;4.746;2023-04-01T11:47:28;99785.94;;;17.69;61.88
15314;BME280;7757;52.626;4.746;2023-04-01T11:50:26;99796.97;;;17.94;61.81
15314;BME280;7757;52.626;4.746;2023-04-01T11:53:25;99801.91;;;18.02;61.71
15314;BME280;7757;52.626;4.746;2023-04-01T11:56:24;99797.56;;;18.01;61.45
15314;BME280;7757;52.626;4.746;2023-04-01T11:59:41;99814.28;;;17.93;61.65
15314;BME280;7757;52.626;4.746;2023-04-01T12:02:43;99817.00;;;17.98;61.28
15314;BME280;7757;52.626;4.746;2023-04-01T12:05:38;99819.13;;;17.91;61.49
15314;BME280;7757;52.626;4.746;2023-04-01T12:08:36;99824.56;;;17.91;61.57
15314;BME280;7757;52.626;4.746;2023-04-01T12:11:33;99823.25;;;17.67;62.20
15314;BME280;7757;52.626;4.746;2023-04-01T12:14:27;99832.22;;;17.72;62.17
15314;BME280;7757;52.626;4.746;2023-04-01T12:17:26;99823.44;;;17.87;61.45
15314;BME280;7757;52.626;4.746;2023-04-01T12:20:28;99840.56;;;17.98;61.92
15314;BME280;7757;52.626;4.746;2023-04-01T12:23:29;99836.44;;;17.90;61.48
15314;BME280;7757;52.626;4.746;2023-04-01T12:26:35;99838.75;;;17.76;62.15
15314;BME280;7757;52.626;4.746;2023-04-01T12:29:49;99846.78;;;17.66;62.25
15314;BME280;7757;52.626;4.746;2023-04-01T12:32:43;99847.91;;;17.70;62.36
15314;BME280;7757;52.626;4.746;2023-04-01T12:35:41;99863.34;;;17.75;61.90
15314;BME280;7757;52.626;4.746;2023-04-01T12:38:41;99864.47;;;17.79;61.90
15314;BME280;7757;52.626;4.746;2023-04-01T12:41:32;99867.81;;;17.86;61.87
15314;BME280;7757;52.626;4.746;2023-04-01T12:47:59;99876.31;;;17.73;61.98
15314;BME280;7757;52.626;4.746;2023-04-01T12:51:03;99873.50;;;17.63;62.04
15314;BME280;7757;52.626;4.746;2023-04-01T12:54:13;99879.41;;;17.60;62.54
15314;BME280;7757;52.626;4.746;2023-04-01T12:57:13;99890.50;;;17.58;62.15
15314;BME280;7757;52.626;4.746;2023-04-01T13:00:16;99900.78;;;17.56;62.43
15314;BME280;7757;52.626;4.746;2023-04-01T13:03:25;99905.91;;;17.58;62.63
15314;BME280;7757;52.626;4.746;2023-04-01T13:06:29;99901.88;;;17.60;62.33
15314;BME280;7757;52.626;4.746;2023-04-01T13:09:25;99916.22;;;17.61;62.40
15314;BME280;7757;52.626;4.746;2023-04-01T13:12:28;99920.28;;;17.63;62.50
15314;BME280;7757;52.626;4.746;2023-04-01T13:15:26;99916.72;;;17.58;62.48
15314;BME280;7757;52.626;4.746;2023-04-01T13:18:21;99919.94;;;17.55;62.21
15314;BME280;7757;52.626;4.746;2023-04-01T13:21:15;99930.50;;;17.56;63.10
15314;BME280;7757;52.626;4.746;2023-04-01T13:24:11;99940.22;;;17.57;62.90
15314;BME280;7757;52.626;4.746;2023-04-01T13:27:05;99953.41;;;17.54;62.72
15314;BME280;7757;52.626;4.746;2023-04-01T13:30:03;99953.91;;;17.51;63.01
15314;BME280;7757;52.626;4.746;2023-04-01T13:32:59;99960.25;;;17.56;62.95
15314;BME280;7757;52.626;4.746;2023-04-01T13:35:54;99958.75;;;17.65;63.04
15314;BME280;7757;52.626;4.746;2023-04-01T13:39:01;99971.81;;;17.73;62.86
15314;BME280;7757;52.626;4.746;2023-04-01T13:42:11;99973.91;;;17.71;62.90
15314;BME280;7757;52.626;4.746;2023-04-01T13:45:02;99965.56;;;17.73;62.82
15314;BME280;7757;52.626;4.746;2023-04-01T13:48:21;99982.66;;;17.78;62.58
15314;BME280;7757;52.626;4.746;2023-04-01T13:51:21;99991.06;;;17.77;62.65
15314;BME280;7757;52.626;4.746;2023-04-01T13:57:52;99974.38;;;17.63;63.04
15314;BME280;7757;52.626;4.746;2023-04-01T14:00:50;99992.06;;;17.71;62.84
15314;BME280;7757;52.626;4.746;2023-04-01T14:03:50;100007.28;;;17.77;62.80
15314;BME280;7757;52.626;4.746;2023-04-01T14:06:43;100010.53;;;17.79;62.75
15314;BME280;7757;52.626;4.746;2023-04-01T14:09:59;100008.06;;;17.77;62.61
15314;BME280;7757;52.626;4.746;2023-04-01T14:12:55;100015.63;;;17.75;62.59
15314;BME280;7757;52.626;4.746;2023-04-01T14:15:54;100030.22;;;17.74;62.92
15314;BME280;7757;52.626;4.746;2023-04-01T14:19:00;100023.13;;;17.68;63.13
15314;BME280;7757;52.626;4.746;2023-04-01T14:21:51;100037.44;;;17.69;63.09
15314;BME280;7757;52.626;4.746;2023-04-01T14:25:04;100047.22;;;17.70;62.83
15314;BME280;7757;52.626;4.746;2023-04-01T14:28:11;100044.50;;;17.70;63.16
15314;BME280;7757;52.626;4.746;2023-04-01T14:31:11;100039.72;;;17.55;63.06
15314;BME280;7757;52.626;4.746;2023-04-01T14:34:11;100054.94;;;17.61;62.80
15314;BME280;7757;52.626;4.746;2023-04-01T14:37:25;100067.63;;;17.61;62.92
15314;BME280;7757;52.626;4.746;2023-04-01T14:40:26;100076.75;;;17.55;62.95
15314;BME280;7757;52.626;4.746;2023-04-01T14:43:38;100079.47;;;17.55;62.98
15314;BME280;7757;52.626;4.746;2023-04-01T14:49:53;100082.41;;;17.53;62.66
15314;BME280;7757;52.626;4.746;2023-04-01T14:52:55;100097.19;;;17.51;62.77
15314;BME280;7757;52.626;4.746;2023-04-01T14:55:49;100102.59;;;17.51;62.90
15314;BME280;7757;52.626;4.746;2023-04-01T14:58:45;100113.69;;;17.49;62.70
15314;BME280;7757;52.626;4.746;2023-04-01T15:01:37;100101.50;;;17.47;63.17
15314;BME280;7757;52.626;4.746;2023-04-01T15:04:37;100116.13;;;17.51;62.78
15314;BME280;7757;52.626;4.746;2023-04-01T15:07:46;100116.41;;;17.49;62.69
15314;BME280;7757;52.626;4.746;2023-04-01T15:14:28;100130.06;;;17.43;63.15
15314;BME280;7757;52.626;4.746;2023-04-01T15:17:34;100144.41;;;17.43;62.83
15314;BME280;7757;52.626;4.746;2023-04-01T15:20:37;100151.13;;;17.41;62.84
15314;BME280;7757;52.626;4.746;2023-04-01T15:23:37;100151.97;;;17.41;63.23
15314;BME280;7757;52.626;4.746;2023-04-01T15:26:36;100161.41;;;17.39;63.16
15314;BME280;7757;52.626;4.746;2023-04-01T15:29:42;100166.31;;;17.42;63.10
15314;BME280;7757;52.626;4.746;2023-04-01T15:32:44;100177.63;;;17.39;63.06
15314;BME280;7757;52.626;4.746;2023-04-01T15:35:40;100159.66;;;17.33;62.83
15314;BME280;7757;52.626;4.746;2023-04-01T15:38:36;100179.38;;;17.33;62.75
15314;BME280;7757;52.626;4.746;2023-04-01T15:41:28;100186.44;;;17.34;62.84
15314;BME280;7757;52.626;4.746;2023-04-01T15:44:42;100197.81;;;17.36;62.92
15314;BME280;7757;52.626;4.746;2023-04-01T15:47:41;100207.16;;;17.28;63.21
15314;BME280;7757;52.626;4.746;2023-04-01T15:50:51;100212.00;;;17.26;63.11
15314;BME280;7757;52.626;4.746;2023-04-01T15:57:06;100233.16;;;17.29;63.13
15314;BME280;7757;52.626;4.746;2023-04-01T16:00:09;100228.72;;;17.23;62.91
15314;BME280;7757;52.626;4.746;2023-04-01T16:03:13;100233.53;;;17.21;63.14
15314;BME280;7757;52.626;4.746;2023-04-01T16:06:17;100243.44;;;17.16;62.99
15314;BME280;7757;52.626;4.746;2023-04-01T16:09:16;100252.84;;;17.13;63.55
15314;BME280;7757;52.626;4.746;2023-04-01T16:12:15;100252.50;;;17.10;63.16
15314;BME280;7757;52.626;4.746;2023-04-01T16:15:06;100264.13;;;17.10;63.42
15314;BME280;7757;52.626;4.746;2023-04-01T16:18:13;100259.34;;;17.01;63.48
15314;BME280;7757;52.626;4.746;2023-04-01T16:21:10;100274.44;;;16.97;63.22
15314;BME280;7757;52.626;4.746;2023-04-01T16:24:01;100269.72;;;16.92;63.74
15314;BME280;7757;52.626;4.746;2023-04-01T16:26:53;100281.34;;;16.93;63.32
15314;BME280;7757;52.626;4.746;2023-04-01T16:29:45;100294.97;;;16.98;63.68
15314;BME280;7757;52.626;4.746;2023-04-01T16:32:46;100293.00;;;16.93;63.35
15314;BME280;7757;52.626;4.746;2023-04-01T16:35:41;100306.50;;;16.93;63.31